sensor_id;sensor_type;location;lat;lon;timestamp;P1;durP1;ratioP1;P2;durP2;ratioP2
9968;SDS011;5025;48.890;9.278;2023-03-20T00:00:17;1.57;;;1.47;;
9968;SDS011;5025;48.890;9.278;2023-03-20T00:02:42;1.40;;;1.40;;
9968;SDS011;5025;48.890;9.278;2023-03-20T00:05:14;1.20;;;1.20;;
9968;SDS011;5025;48.890;9.278;2023-03-20T00:07:42;1.43;;;1.43;;
9968;SDS011;5025;48.890;9.278;2023-03-20T00:10:08;1.40;;;1.30;;
9968;SDS011;5025;48.890;9.278;2023-03-20T00:12:34;1.10;;;1.10;;
9968;SDS011;5025;48.890;9.278;2023-03-20T00:15:00;1.23;;;1.23;;
9968;SDS011;5025;48.890;9.278;2023-03-20T00:17:29;1.10;;;1.10;;
9968;SDS011;5025;48.890;9.278;2023-03-20T00:19:55;1.10;;;1.10;;
9968;SDS011;5025;48.890;9.278;2023-03-20T00:22:20;1.10;;;1.10;;
9968;SDS011;5025;48.890;9.278;2023-03-20T00:24:46;1.07;;;1.07;;
9968;SDS011;5025;48.890;9.278;2023-03-20T00:27:12;1.10;;;1.10;;
9968;SDS011;5025;48.890;9.278;2023-03-20T00:29:39;1.00;;;1.00;;
9968;SDS011;5025;48.890;9.278;2023-03-20T00:32:07;1.20;;;1.20;;
9968;SDS011;5025;48.890;9.278;2023-03-20T00:34:35;1.10;;;1.10;;
9968;SDS011;5025;48.890;9.278;2023-03-20T00:37:01;1.10;;;1.10;;
9968;SDS011;5025;48.890;9.278;2023-03-20T00:39:26;1.00;;;1.00;;
9968;SDS011;5025;48.890;9.278;2023-03-20T00:41:55;0.90;;;0.90;;
9968;SDS011;5025;48.890;9.278;2023-03-20T00:44:37;1.00;;;1.00;;
9968;SDS011;5025;48.890;9.278;2023-03-20T00:47:20;1.03;;;1.03;;
9968;SDS011;5025;48.890;9.278;2023-03-20T00:49:47;1.53;;;1.20;;
9968;SDS011;5025;48.890;9.278;2023-03-20T00:52:16;1.17;;;1.10;;
9968;SDS011;5025;48.890;9.278;2023-03-20T00:54:42;1.03;;;1.03;;
9968;SDS011;5025;48.890;9.278;2023-03-20T00:57:11;1.17;;;1.17;;
9968;SDS011;5025;48.890;9.278;2023-03-20T00:59:46;0.90;;;0.90;;
9968;SDS011;5025;48.890;9.278;2023-03-20T01:02:15;0.93;;;0.93;;
9968;SDS011;5025;48.890;9.278;2023-03-20T01:04:41;1.00;;;1.00;;
9968;SDS011;5025;48.890;9.278;2023-03-20T01:07:08;1.27;;;1.20;;
9968;SDS011;5025;48.890;9.278;2023-03-20T01:09:36;1.13;;;1.13;;
9968;SDS011;5025;48.890;9.278;2023-03-20T01:12:02;1.03;;;1.03;;
9968;SDS011;5025;48.890;9.278;2023-03-20T01:14:28;1.03;;;1.03;;
9968;SDS011;5025;48.890;9.278;2023-03-20T01:16:53;1.10;;;1.10;;
9968;SDS011;5025;48.890;9.278;2023-03-20T01:19:18;1.20;;;1.20;;
9968;SDS011;5025;48.890;9.278;2023-03-20T01:21:44;1.10;;;1.10;;
9968;SDS011;5025;48.890;9.278;2023-03-20T01:24:09;1.00;;;1.00;;
9968;SDS011;5025;48.890;9.278;2023-03-20T01:26:38;1.20;;;1.20;;
9968;SDS011;5025;48.890;9.278;2023-03-20T01:31:49;1.07;;;1.07;;
9968;SDS011;5025;48.890;9.278;2023-03-20T01:34:16;1.00;;;1.00;;
9968;SDS011;5025;48.890;9.278;2023-03-20T01:36:43;1.10;;;1.10;;
9968;SDS011;5025;48.890;9.278;2023-03-20T01:39:14;1.13;;;1.13;;
9968;SDS011;5025;48.890;9.278;2023-03-20T01:41:41;1.13;;;1.13;;
9968;SDS011;5025;48.890;9.278;2023-03-20T01:44:20;1.10;;;1.10;;
9968;SDS011;5025;48.890;9.278;2023-03-20T01:46:52;1.10;;;1.10;;
9968;SDS011;5025;48.890;9.278;2023-03-20T01:51:43;1.10;;;1.10;;
9968;SDS011;5025;48.890;9.278;2023-03-20T01:54:10;1.00;;;1.00;;
9968;SDS011;5025;48.890;9.278;2023-03-20T01:56:45;1.33;;;1.33;;
9968;SDS011;5025;48.890;9.278;2023-03-20T01:59:15;1.10;;;1.10;;
9968;SDS011;5025;48.890;9.278;2023-03-20T02:01:53;1.20;;;1.20;;
9968;SDS011;5025;48.890;9.278;2023-03-20T02:04:19;1.00;;;1.00;;
9968;SDS011;5025;48.890;9.278;2023-03-20T02:06:48;1.20;;;1.20;;
9968;SDS011;5025;48.890;9.278;2023-03-20T02:09:13;1.20;;;1.20;;
9968;SDS011;5025;48.890;9.278;2023-03-20T02:11:39;1.40;;;1.40;;
9968;SDS011;5025;48.890;9.278;2023-03-20T02:14:07;1.37;;;1.37;;
9968;SDS011;5025;48.890;9.278;2023-03-20T02:16:33;1.50;;;1.40;;
9968;SDS011;5025;48.890;9.278;2023-03-20T02:18:58;1.30;;;1.30;;
9968;SDS011;5025;48.890;9.278;2023-03-20T02:27:05;1.50;;;1.50;;
9968;SDS011;5025;48.890;9.278;2023-03-20T02:29:48;1.33;;;1.33;;
9968;SDS011;5025;48.890;9.278;2023-03-20T02:32:27;1.20;;;1.20;;
9968;SDS011;5025;48.890;9.278;2023-03-20T02:35:02;1.40;;;1.40;;
9968;SDS011;5025;48.890;9.278;2023-03-20T02:40:31;1.30;;;1.30;;
9968;SDS011;5025;48.890;9.278;2023-03-20T02:45:44;1.43;;;1.40;;
9968;SDS011;5025;48.890;9.278;2023-03-20T02:51:19;1.40;;;1.40;;
9968;SDS011;5025;48.890;9.278;2023-03-20T02:53:58;1.13;;;1.13;;
9968;SDS011;5025;48.890;9.278;2023-03-20T02:59:30;1.40;;;1.40;;
9968;SDS011;5025;48.890;9.278;2023-03-20T03:01:58;1.30;;;1.30;;
9968;SDS011;5025;48.890;9.278;2023-03-20T03:04:33;1.30;;;1.30;;
9968;SDS011;5025;48.890;9.278;2023-03-20T03:07:05;1.40;;;1.40;;
9968;SDS011;5025;48.890;9.278;2023-03-20T03:12:29;1.43;;;1.43;;
9968;SDS011;5025;48.890;9.278;2023-03-20T03:15:01;1.40;;;1.40;;
9968;SDS011;5025;48.890;9.278;2023-03-20T03:17:32;1.53;;;1.50;;
9968;SDS011;5025;48.890;9.278;2023-03-20T03:20:05;1.23;;;1.23;;
9968;SDS011;5025;48.890;9.278;2023-03-20T03:22:38;1.40;;;1.40;;
9968;SDS011;5025;48.890;9.278;2023-03-20T03:25:04;1.40;;;1.40;;
9968;SDS011;5025;48.890;9.278;2023-03-20T03:27:33;1.60;;;1.60;;
9968;SDS011;5025;48.890;9.278;2023-03-20T03:30:06;1.70;;;1.70;;
9968;SDS011;5025;48.890;9.278;2023-03-20T03:32:35;1.40;;;1.40;;
9968;SDS011;5025;48.890;9.278;2023-03-20T03:35:05;1.40;;;1.40;;
9968;SDS011;5025;48.890;9.278;2023-03-20T03:38:22;1.70;;;1.67;;
9968;SDS011;5025;48.890;9.278;2023-03-20T03:41:00;1.63;;;1.63;;
9968;SDS011;5025;48.890;9.278;2023-03-20T03:43:30;1.70;;;1.70;;
9968;SDS011;5025;48.890;9.278;2023-03-20T03:46:00;1.67;;;1.67;;
9968;SDS011;5025;48.890;9.278;2023-03-20T03:48:34;2.20;;;2.10;;
9968;SDS011;5025;48.890;9.278;2023-03-20T03:51:09;2.30;;;2.20;;
9968;SDS011;5025;48.890;9.278;2023-03-20T03:53:46;2.33;;;2.23;;
9968;SDS011;5025;48.890;9.278;2023-03-20T03:56:18;2.50;;;2.40;;
9968;SDS011;5025;48.890;9.278;2023-03-20T03:58:48;2.67;;;2.57;;
9968;SDS011;5025;48.890;9.278;2023-03-20T04:01:17;2.70;;;2.60;;
9968;SDS011;5025;48.890;9.278;2023-03-20T04:03:46;2.50;;;2.40;;
9968;SDS011;5025;48.890;9.278;2023-03-20T04:06:14;2.43;;;2.33;;
9968;SDS011;5025;48.890;9.278;2023-03-20T04:08:41;2.37;;;2.27;;
9968;SDS011;5025;48.890;9.278;2023-03-20T04:11:11;2.23;;;2.13;;
9968;SDS011;5025;48.890;9.278;2023-03-20T04:13:39;2.30;;;2.20;;
9968;SDS011;5025;48.890;9.278;2023-03-20T04:16:05;2.20;;;2.10;;
9968;SDS011;5025;48.890;9.278;2023-03-20T04:18:31;2.10;;;2.00;;
9968;SDS011;5025;48.890;9.278;2023-03-20T04:20:56;2.10;;;2.00;;
9968;SDS011;5025;48.890;9.278;2023-03-20T04:23:21;2.30;;;2.10;;
9968;SDS011;5025;48.890;9.278;2023-03-20T04:25:46;1.93;;;1.93;;
9968;SDS011;5025;48.890;9.278;2023-03-20T04:28:12;2.33;;;2.23;;
9968;SDS011;5025;48.890;9.278;2023-03-20T04:30:40;2.03;;;1.93;;
9968;SDS011;5025;48.890;9.278;2023-03-20T04:33:05;2.20;;;2.10;;
9968;SDS011;5025;48.890;9.278;2023-03-20T04:35:31;2.10;;;2.00;;
9968;SDS011;5025;48.890;9.278;2023-03-20T04:37:56;1.70;;;1.70;;
9968;SDS011;5025;48.890;9.278;2023-03-20T04:40:21;1.67;;;1.60;;
9968;SDS011;5025;48.890;9.278;2023-03-20T04:42:47;1.70;;;1.70;;
9968;SDS011;5025;48.890;9.278;2023-03-20T04:45:12;2.20;;;1.50;;
9968;SDS011;5025;48.890;9.278;2023-03-20T04:47:37;1.60;;;1.60;;
9968;SDS011;5025;48.890;9.278;2023-03-20T04:50:03;1.60;;;1.60;;
9968;SDS011;5025;48.890;9.278;2023-03-20T04:52:28;1.40;;;1.40;;
9968;SDS011;5025;48.890;9.278;2023-03-20T04:54:54;1.47;;;1.47;;
9968;SDS011;5025;48.890;9.278;2023-03-20T04:57:19;1.33;;;1.33;;
9968;SDS011;5025;48.890;9.278;2023-03-20T04:59:44;1.70;;;1.70;;
9968;SDS011;5025;48.890;9.278;2023-03-20T05:02:09;1.50;;;1.43;;
9968;SDS011;5025;48.890;9.278;2023-03-20T05:04:38;1.63;;;1.53;;
9968;SDS011;5025;48.890;9.278;2023-03-20T05:07:04;1.63;;;1.60;;
9968;SDS011;5025;48.890;9.278;2023-03-20T05:09:30;2.00;;;1.90;;
9968;SDS011;5025;48.890;9.278;2023-03-20T05:11:55;1.90;;;1.80;;
9968;SDS011;5025;48.890;9.278;2023-03-20T05:14:20;1.77;;;1.77;;
9968;SDS011;5025;48.890;9.278;2023-03-20T05:16:46;2.37;;;2.27;;
9968;SDS011;5025;48.890;9.278;2023-03-20T05:19:11;2.90;;;2.80;;
9968;SDS011;5025;48.890;9.278;2023-03-20T05:21:36;2.90;;;2.80;;
9968;SDS011;5025;48.890;9.278;2023-03-20T05:24:01;3.43;;;3.23;;
9968;SDS011;5025;48.890;9.278;2023-03-20T05:26:27;2.93;;;2.83;;
9968;SDS011;5025;48.890;9.278;2023-03-20T05:28:52;3.00;;;2.67;;
9968;SDS011;5025;48.890;9.278;2023-03-20T05:31:17;2.60;;;2.50;;
9968;SDS011;5025;48.890;9.278;2023-03-20T05:33:43;2.60;;;2.50;;
9968;SDS011;5025;48.890;9.278;2023-03-20T05:36:08;2.37;;;2.20;;
9968;SDS011;5025;48.890;9.278;2023-03-20T05:38:33;2.20;;;2.10;;
9968;SDS011;5025;48.890;9.278;2023-03-20T05:40:59;1.93;;;1.90;;
9968;SDS011;5025;48.890;9.278;2023-03-20T05:43:25;1.60;;;1.60;;
9968;SDS011;5025;48.890;9.278;2023-03-20T05:45:52;1.80;;;1.70;;
9968;SDS011;5025;48.890;9.278;2023-03-20T05:48:18;2.50;;;2.30;;
9968;SDS011;5025;48.890;9.278;2023-03-20T05:50:43;2.10;;;2.00;;
9968;SDS011;5025;48.890;9.278;2023-03-20T05:53:08;1.90;;;1.80;;
9968;SDS011;5025;48.890;9.278;2023-03-20T05:55:34;2.30;;;2.20;;
9968;SDS011;5025;48.890;9.278;2023-03-20T05:58:00;2.03;;;1.93;;
9968;SDS011;5025;48.890;9.278;2023-03-20T06:00:25;2.23;;;2.13;;
9968;SDS011;5025;48.890;9.278;2023-03-20T06:02:51;2.10;;;2.00;;
9968;SDS011;5025;48.890;9.278;2023-03-20T06:05:16;1.80;;;1.70;;
9968;SDS011;5025;48.890;9.278;2023-03-20T06:07:42;1.50;;;1.50;;
9968;SDS011;5025;48.890;9.278;2023-03-20T06:10:07;1.50;;;1.50;;
9968;SDS011;5025;48.890;9.278;2023-03-20T06:12:33;1.30;;;1.30;;
9968;SDS011;5025;48.890;9.278;2023-03-20T06:14:58;1.40;;;1.30;;
9968;SDS011;5025;48.890;9.278;2023-03-20T06:17:24;1.40;;;1.40;;
9968;SDS011;5025;48.890;9.278;2023-03-20T06:19:50;1.30;;;1.30;;
9968;SDS011;5025;48.890;9.278;2023-03-20T06:22:15;1.10;;;1.10;;
9968;SDS011;5025;48.890;9.278;2023-03-20T06:24:40;1.10;;;1.10;;
9968;SDS011;5025;48.890;9.278;2023-03-20T06:27:07;1.10;;;1.10;;
9968;SDS011;5025;48.890;9.278;2023-03-20T06:29:32;1.30;;;1.30;;
9968;SDS011;5025;48.890;9.278;2023-03-20T06:31:57;1.20;;;1.20;;
9968;SDS011;5025;48.890;9.278;2023-03-20T06:34:23;1.33;;;1.33;;
9968;SDS011;5025;48.890;9.278;2023-03-20T06:36:48;1.47;;;1.47;;
9968;SDS011;5025;48.890;9.278;2023-03-20T06:39:13;1.90;;;1.80;;
9968;SDS011;5025;48.890;9.278;2023-03-20T06:41:39;1.47;;;1.47;;
9968;SDS011;5025;48.890;9.278;2023-03-20T06:44:04;1.67;;;1.60;;
9968;SDS011;5025;48.890;9.278;2023-03-20T06:46:30;1.33;;;1.33;;
9968;SDS011;5025;48.890;9.278;2023-03-20T06:48:55;1.57;;;1.47;;
9968;SDS011;5025;48.890;9.278;2023-03-20T06:51:21;1.23;;;1.23;;
9968;SDS011;5025;48.890;9.278;2023-03-20T06:53:46;1.20;;;1.20;;
9968;SDS011;5025;48.890;9.278;2023-03-20T06:56:11;1.50;;;1.40;;
9968;SDS011;5025;48.890;9.278;2023-03-20T06:58:37;1.40;;;1.40;;
9968;SDS011;5025;48.890;9.278;2023-03-20T07:01:09;1.50;;;1.50;;
9968;SDS011;5025;48.890;9.278;2023-03-20T07:03:37;1.60;;;1.50;;
9968;SDS011;5025;48.890;9.278;2023-03-20T07:06:02;1.40;;;1.40;;
9968;SDS011;5025;48.890;9.278;2023-03-20T07:08:28;1.70;;;1.60;;
9968;SDS011;5025;48.890;9.278;2023-03-20T07:10:53;1.40;;;1.40;;
9968;SDS011;5025;48.890;9.278;2023-03-20T07:13:19;1.43;;;1.33;;
9968;SDS011;5025;48.890;9.278;2023-03-20T07:15:44;1.30;;;1.30;;
9968;SDS011;5025;48.890;9.278;2023-03-20T07:18:09;1.60;;;1.60;;
9968;SDS011;5025;48.890;9.278;2023-03-20T07:20:35;1.50;;;1.50;;
9968;SDS011;5025;48.890;9.278;2023-03-20T07:23:00;1.50;;;1.50;;
9968;SDS011;5025;48.890;9.278;2023-03-20T07:25:26;1.90;;;1.80;;
9968;SDS011;5025;48.890;9.278;2023-03-20T07:27:51;1.80;;;1.70;;
9968;SDS011;5025;48.890;9.278;2023-03-20T07:30:17;1.77;;;1.67;;
9968;SDS011;5025;48.890;9.278;2023-03-20T07:32:43;4.00;;;2.50;;
9968;SDS011;5025;48.890;9.278;2023-03-20T07:35:09;2.57;;;2.37;;
9968;SDS011;5025;48.890;9.278;2023-03-20T07:37:34;2.97;;;2.87;;
9968;SDS011;5025;48.890;9.278;2023-03-20T07:40:00;2.40;;;2.20;;
9968;SDS011;5025;48.890;9.278;2023-03-20T07:42:25;2.40;;;2.20;;
9968;SDS011;5025;48.890;9.278;2023-03-20T07:44:50;2.30;;;2.10;;
9968;SDS011;5025;48.890;9.278;2023-03-20T07:47:16;2.03;;;1.93;;
9968;SDS011;5025;48.890;9.278;2023-03-20T07:49:41;1.90;;;1.80;;
9968;SDS011;5025;48.890;9.278;2023-03-20T07:52:07;1.70;;;1.70;;
9968;SDS011;5025;48.890;9.278;2023-03-20T07:54:32;1.83;;;1.73;;
9968;SDS011;5025;48.890;9.278;2023-03-20T07:56:58;2.23;;;2.10;;
9968;SDS011;5025;48.890;9.278;2023-03-20T07:59:23;2.10;;;2.00;;
9968;SDS011;5025;48.890;9.278;2023-03-20T08:01:49;2.07;;;1.90;;
9968;SDS011;5025;48.890;9.278;2023-03-20T08:04:14;1.90;;;1.80;;
9968;SDS011;5025;48.890;9.278;2023-03-20T08:06:43;1.90;;;1.80;;
9968;SDS011;5025;48.890;9.278;2023-03-20T08:09:08;1.90;;;1.80;;
9968;SDS011;5025;48.890;9.278;2023-03-20T08:11:33;1.90;;;1.80;;
9968;SDS011;5025;48.890;9.278;2023-03-20T08:13:59;1.83;;;1.73;;
9968;SDS011;5025;48.890;9.278;2023-03-20T08:16:24;1.80;;;1.70;;
9968;SDS011;5025;48.890;9.278;2023-03-20T08:18:50;2.43;;;2.23;;
9968;SDS011;5025;48.890;9.278;2023-03-20T08:21:17;3.10;;;2.80;;
9968;SDS011;5025;48.890;9.278;2023-03-20T08:23:43;2.50;;;2.40;;
9968;SDS011;5025;48.890;9.278;2023-03-20T08:26:08;2.23;;;2.10;;
9968;SDS011;5025;48.890;9.278;2023-03-20T08:28:33;2.40;;;2.30;;
9968;SDS011;5025;48.890;9.278;2023-03-20T08:30:58;2.17;;;1.90;;
9968;SDS011;5025;48.890;9.278;2023-03-20T08:33:24;2.00;;;1.90;;
9968;SDS011;5025;48.890;9.278;2023-03-20T08:35:56;2.00;;;1.90;;
9968;SDS011;5025;48.890;9.278;2023-03-20T08:38:22;1.93;;;1.80;;
9968;SDS011;5025;48.890;9.278;2023-03-20T08:40:48;1.57;;;1.50;;
9968;SDS011;5025;48.890;9.278;2023-03-20T08:43:13;1.70;;;1.60;;
9968;SDS011;5025;48.890;9.278;2023-03-20T08:45:39;1.40;;;1.40;;
9968;SDS011;5025;48.890;9.278;2023-03-20T08:48:04;2.07;;;1.67;;
9968;SDS011;5025;48.890;9.278;2023-03-20T08:50:30;1.73;;;1.73;;
9968;SDS011;5025;48.890;9.278;2023-03-20T08:52:56;1.50;;;1.50;;
9968;SDS011;5025;48.890;9.278;2023-03-20T08:55:22;1.30;;;1.30;;
9968;SDS011;5025;48.890;9.278;2023-03-20T08:57:47;1.20;;;1.20;;
9968;SDS011;5025;48.890;9.278;2023-03-20T09:00:13;1.40;;;1.40;;
9968;SDS011;5025;48.890;9.278;2023-03-20T09:02:40;1.20;;;1.20;;
9968;SDS011;5025;48.890;9.278;2023-03-20T09:05:06;1.37;;;1.27;;
9968;SDS011;5025;48.890;9.278;2023-03-20T09:07:32;1.30;;;1.30;;
9968;SDS011;5025;48.890;9.278;2023-03-20T09:09:58;1.13;;;1.13;;
9968;SDS011;5025;48.890;9.278;2023-03-20T09:12:23;1.47;;;1.37;;
9968;SDS011;5025;48.890;9.278;2023-03-20T09:14:49;1.43;;;1.43;;
9968;SDS011;5025;48.890;9.278;2023-03-20T09:17:14;1.60;;;1.60;;
9968;SDS011;5025;48.890;9.278;2023-03-20T09:19:39;2.30;;;2.20;;
9968;SDS011;5025;48.890;9.278;2023-03-20T09:22:08;2.00;;;1.90;;
9968;SDS011;5025;48.890;9.278;2023-03-20T09:24:35;2.27;;;2.17;;
9968;SDS011;5025;48.890;9.278;2023-03-20T09:27:00;2.67;;;2.30;;
9968;SDS011;5025;48.890;9.278;2023-03-20T09:29:26;2.13;;;2.03;;
9968;SDS011;5025;48.890;9.278;2023-03-20T09:31:54;2.20;;;2.10;;
9968;SDS011;5025;48.890;9.278;2023-03-20T09:34:19;2.40;;;2.20;;
9968;SDS011;5025;48.890;9.278;2023-03-20T09:36:45;3.33;;;2.00;;
9968;SDS011;5025;48.890;9.278;2023-03-20T09:39:10;2.07;;;1.97;;
9968;SDS011;5025;48.890;9.278;2023-03-20T09:41:36;2.20;;;2.00;;
9968;SDS011;5025;48.890;9.278;2023-03-20T09:49:44;1.97;;;1.87;;
9968;SDS011;5025;48.890;9.278;2023-03-20T09:52:26;3.20;;;1.73;;
9968;SDS011;5025;48.890;9.278;2023-03-20T09:54:56;1.90;;;1.80;;
9968;SDS011;5025;48.890;9.278;2023-03-20T09:57:27;2.10;;;1.90;;
9968;SDS011;5025;48.890;9.278;2023-03-20T10:00:00;2.07;;;1.97;;
9968;SDS011;5025;48.890;9.278;2023-03-20T10:05:26;2.20;;;2.07;;
9968;SDS011;5025;48.890;9.278;2023-03-20T10:07:58;2.07;;;1.97;;
9968;SDS011;5025;48.890;9.278;2023-03-20T10:18:51;2.57;;;2.30;;
9968;SDS011;5025;48.890;9.278;2023-03-20T10:21:34;2.30;;;2.20;;
9968;SDS011;5025;48.890;9.278;2023-03-20T10:24:08;2.43;;;2.27;;
9968;SDS011;5025;48.890;9.278;2023-03-20T10:26:43;2.20;;;2.10;;
9968;SDS011;5025;48.890;9.278;2023-03-20T10:29:17;2.70;;;2.30;;
9968;SDS011;5025;48.890;9.278;2023-03-20T10:32:23;2.40;;;2.20;;
9968;SDS011;5025;48.890;9.278;2023-03-20T10:40:37;3.30;;;3.10;;
9968;SDS011;5025;48.890;9.278;2023-03-20T10:43:22;2.67;;;2.47;;
9968;SDS011;5025;48.890;9.278;2023-03-20T10:48:35;3.40;;;3.10;;
9968;SDS011;5025;48.890;9.278;2023-03-20T10:51:05;3.70;;;3.37;;
9968;SDS011;5025;48.890;9.278;2023-03-20T10:53:45;3.57;;;3.37;;
9968;SDS011;5025;48.890;9.278;2023-03-20T10:56:15;4.03;;;3.67;;
9968;SDS011;5025;48.890;9.278;2023-03-20T10:58:53;4.00;;;3.70;;
9968;SDS011;5025;48.890;9.278;2023-03-20T11:01:23;3.73;;;3.40;;
9968;SDS011;5025;48.890;9.278;2023-03-20T11:03:48;4.17;;;3.80;;
9968;SDS011;5025;48.890;9.278;2023-03-20T11:08:50;4.40;;;4.00;;
9968;SDS011;5025;48.890;9.278;2023-03-20T11:11:20;4.37;;;3.50;;
9968;SDS011;5025;48.890;9.278;2023-03-20T11:13:49;3.77;;;3.47;;
9968;SDS011;5025;48.890;9.278;2023-03-20T11:16:20;4.27;;;3.97;;
9968;SDS011;5025;48.890;9.278;2023-03-20T11:18:45;4.10;;;3.80;;
9968;SDS011;5025;48.890;9.278;2023-03-20T11:23:50;4.70;;;4.30;;
9968;SDS011;5025;48.890;9.278;2023-03-20T11:26:18;4.03;;;3.53;;
9968;SDS011;5025;48.890;9.278;2023-03-20T11:28:52;4.70;;;4.30;;
9968;SDS011;5025;48.890;9.278;2023-03-20T11:31:24;4.40;;;4.10;;
9968;SDS011;5025;48.890;9.278;2023-03-20T11:36:29;5.23;;;4.73;;
9968;SDS011;5025;48.890;9.278;2023-03-20T11:38:58;5.00;;;4.60;;
9968;SDS011;5025;48.890;9.278;2023-03-20T11:41:29;5.57;;;4.80;;
9968;SDS011;5025;48.890;9.278;2023-03-20T11:43:55;5.30;;;4.87;;
9968;SDS011;5025;48.890;9.278;2023-03-20T11:46:21;5.60;;;5.10;;
9968;SDS011;5025;48.890;9.278;2023-03-20T11:49:00;5.43;;;4.93;;
9968;SDS011;5025;48.890;9.278;2023-03-20T11:51:28;5.90;;;4.20;;
9968;SDS011;5025;48.890;9.278;2023-03-20T11:53:57;5.03;;;4.53;;
9968;SDS011;5025;48.890;9.278;2023-03-20T11:56:27;4.83;;;4.43;;
9968;SDS011;5025;48.890;9.278;2023-03-20T12:01:44;5.03;;;4.37;;
9968;SDS011;5025;48.890;9.278;2023-03-20T12:04:20;4.17;;;3.77;;
9968;SDS011;5025;48.890;9.278;2023-03-20T12:06:53;4.27;;;3.93;;
9968;SDS011;5025;48.890;9.278;2023-03-20T12:09:26;3.23;;;3.03;;
9968;SDS011;5025;48.890;9.278;2023-03-20T12:17:45;5.07;;;3.87;;
9968;SDS011;5025;48.890;9.278;2023-03-20T12:23:10;5.33;;;4.30;;
9968;SDS011;5025;48.890;9.278;2023-03-20T12:28:13;3.83;;;3.53;;
9968;SDS011;5025;48.890;9.278;2023-03-20T12:31:03;3.70;;;3.40;;
9968;SDS011;5025;48.890;9.278;2023-03-20T12:33:39;3.63;;;3.33;;
9968;SDS011;5025;48.890;9.278;2023-03-20T12:36:14;3.77;;;3.47;;
9968;SDS011;5025;48.890;9.278;2023-03-20T12:38:43;4.97;;;4.00;;
9968;SDS011;5025;48.890;9.278;2023-03-20T12:41:12;3.73;;;3.43;;
9968;SDS011;5025;48.890;9.278;2023-03-20T12:46:47;4.50;;;4.10;;
9968;SDS011;5025;48.890;9.278;2023-03-20T12:58:01;4.13;;;3.83;;
9968;SDS011;5025;48.890;9.278;2023-03-20T13:01:42;4.63;;;4.13;;
9968;SDS011;5025;48.890;9.278;2023-03-20T13:09:57;4.60;;;4.20;;
9968;SDS011;5025;48.890;9.278;2023-03-20T13:12:39;3.97;;;3.67;;
9968;SDS011;5025;48.890;9.278;2023-03-20T13:20:47;5.20;;;4.10;;
9968;SDS011;5025;48.890;9.278;2023-03-20T13:23:18;3.80;;;3.50;;
9968;SDS011;5025;48.890;9.278;2023-03-20T13:31:30;3.87;;;3.30;;
9968;SDS011;5025;48.890;9.278;2023-03-20T13:37:00;3.90;;;3.60;;
9968;SDS011;5025;48.890;9.278;2023-03-20T13:39:47;3.63;;;3.33;;
9968;SDS011;5025;48.890;9.278;2023-03-20T13:42:19;3.20;;;3.00;;
9968;SDS011;5025;48.890;9.278;2023-03-20T13:44:47;3.13;;;2.93;;
9968;SDS011;5025;48.890;9.278;2023-03-20T13:47:18;3.80;;;3.50;;
9968;SDS011;5025;48.890;9.278;2023-03-20T13:52:34;3.00;;;2.80;;
9968;SDS011;5025;48.890;9.278;2023-03-20T13:55:20;4.03;;;2.77;;
9968;SDS011;5025;48.890;9.278;2023-03-20T13:57:59;3.20;;;2.90;;
9968;SDS011;5025;48.890;9.278;2023-03-20T14:03:25;2.50;;;2.40;;
9968;SDS011;5025;48.890;9.278;2023-03-20T14:05:53;3.13;;;2.80;;
9968;SDS011;5025;48.890;9.278;2023-03-20T14:08:20;2.63;;;2.43;;
9968;SDS011;5025;48.890;9.278;2023-03-20T14:10:47;2.30;;;2.17;;
9968;SDS011;5025;48.890;9.278;2023-03-20T14:13:18;2.43;;;2.33;;
9968;SDS011;5025;48.890;9.278;2023-03-20T14:15:45;3.30;;;2.73;;
9968;SDS011;5025;48.890;9.278;2023-03-20T14:18:15;3.07;;;2.73;;
9968;SDS011;5025;48.890;9.278;2023-03-20T14:20:42;2.90;;;2.70;;
9968;SDS011;5025;48.890;9.278;2023-03-20T14:23:18;3.80;;;2.70;;
9968;SDS011;5025;48.890;9.278;2023-03-20T14:25:50;2.90;;;2.60;;
9968;SDS011;5025;48.890;9.278;2023-03-20T14:30:45;2.63;;;2.43;;
9968;SDS011;5025;48.890;9.278;2023-03-20T14:35:39;1.93;;;1.83;;
9968;SDS011;5025;48.890;9.278;2023-03-20T14:38:29;3.07;;;2.33;;
9968;SDS011;5025;48.890;9.278;2023-03-20T14:41:03;2.00;;;1.90;;
9968;SDS011;5025;48.890;9.278;2023-03-20T14:46:26;2.33;;;2.20;;
9968;SDS011;5025;48.890;9.278;2023-03-20T14:54:52;2.47;;;2.10;;
9968;SDS011;5025;48.890;9.278;2023-03-20T14:57:37;2.30;;;2.03;;
9968;SDS011;5025;48.890;9.278;2023-03-20T15:00:03;2.03;;;1.93;;
9968;SDS011;5025;48.890;9.278;2023-03-20T15:02:33;1.90;;;1.80;;
9968;SDS011;5025;48.890;9.278;2023-03-20T15:05:00;1.70;;;1.60;;
9968;SDS011;5025;48.890;9.278;2023-03-20T15:07:27;1.30;;;1.30;;
9968;SDS011;5025;48.890;9.278;2023-03-20T15:09:59;2.00;;;1.90;;
9968;SDS011;5025;48.890;9.278;2023-03-20T15:12:27;1.97;;;1.87;;
9968;SDS011;5025;48.890;9.278;2023-03-20T15:15:03;2.77;;;2.50;;
9968;SDS011;5025;48.890;9.278;2023-03-20T15:17:35;2.40;;;2.30;;
9968;SDS011;5025;48.890;9.278;2023-03-20T15:20:05;2.67;;;2.47;;
9968;SDS011;5025;48.890;9.278;2023-03-20T15:22:55;4.43;;;2.60;;
9968;SDS011;5025;48.890;9.278;2023-03-20T15:25:22;3.00;;;2.70;;
9968;SDS011;5025;48.890;9.278;2023-03-20T15:27:52;4.17;;;2.73;;
9968;SDS011;5025;48.890;9.278;2023-03-20T15:30:19;2.83;;;2.63;;
9968;SDS011;5025;48.890;9.278;2023-03-20T15:32:47;3.50;;;2.80;;
9968;SDS011;5025;48.890;9.278;2023-03-20T15:35:17;2.70;;;2.53;;
9968;SDS011;5025;48.890;9.278;2023-03-20T15:37:45;3.60;;;3.30;;
9968;SDS011;5025;48.890;9.278;2023-03-20T15:40:16;3.20;;;2.90;;
9968;SDS011;5025;48.890;9.278;2023-03-20T15:42:53;2.80;;;2.60;;
9968;SDS011;5025;48.890;9.278;2023-03-20T15:45:24;3.00;;;2.53;;
9968;SDS011;5025;48.890;9.278;2023-03-20T15:48:05;2.60;;;2.50;;
9968;SDS011;5025;48.890;9.278;2023-03-20T15:50:33;3.07;;;2.87;;
9968;SDS011;5025;48.890;9.278;2023-03-20T15:53:00;3.07;;;2.87;;
9968;SDS011;5025;48.890;9.278;2023-03-20T15:55:27;2.73;;;2.57;;
9968;SDS011;5025;48.890;9.278;2023-03-20T15:57:54;4.67;;;2.80;;
9968;SDS011;5025;48.890;9.278;2023-03-20T16:00:25;2.87;;;2.67;;
9968;SDS011;5025;48.890;9.278;2023-03-20T16:02:54;3.00;;;2.70;;
9968;SDS011;5025;48.890;9.278;2023-03-20T16:05:20;2.63;;;2.43;;
9968;SDS011;5025;48.890;9.278;2023-03-20T16:07:49;2.80;;;2.50;;
9968;SDS011;5025;48.890;9.278;2023-03-20T16:10:29;2.77;;;2.57;;
9968;SDS011;5025;48.890;9.278;2023-03-20T16:12:56;3.43;;;2.67;;
9968;SDS011;5025;48.890;9.278;2023-03-20T16:15:25;2.47;;;2.37;;
9968;SDS011;5025;48.890;9.278;2023-03-20T16:17:56;2.70;;;2.50;;
9968;SDS011;5025;48.890;9.278;2023-03-20T16:20:23;2.57;;;2.37;;
9968;SDS011;5025;48.890;9.278;2023-03-20T16:22:54;3.00;;;2.80;;
9968;SDS011;5025;48.890;9.278;2023-03-20T16:25:25;3.03;;;2.60;;
9968;SDS011;5025;48.890;9.278;2023-03-20T16:27:50;3.10;;;2.80;;
9968;SDS011;5025;48.890;9.278;2023-03-20T16:30:18;2.33;;;2.17;;
9968;SDS011;5025;48.890;9.278;2023-03-20T16:32:48;3.97;;;3.10;;
9968;SDS011;5025;48.890;9.278;2023-03-20T16:35:20;2.80;;;2.60;;
9968;SDS011;5025;48.890;9.278;2023-03-20T16:37:56;2.93;;;2.67;;
9968;SDS011;5025;48.890;9.278;2023-03-20T16:42:51;2.70;;;2.50;;
9968;SDS011;5025;48.890;9.278;2023-03-20T16:47:50;2.80;;;2.60;;
9968;SDS011;5025;48.890;9.278;2023-03-20T16:50:44;2.40;;;2.20;;
9968;SDS011;5025;48.890;9.278;2023-03-20T16:53:15;2.47;;;2.37;;
9968;SDS011;5025;48.890;9.278;2023-03-20T16:55:45;2.20;;;2.00;;
9968;SDS011;5025;48.890;9.278;2023-03-20T16:58:19;4.80;;;2.47;;
9968;SDS011;5025;48.890;9.278;2023-03-20T17:01:03;3.23;;;2.57;;
9968;SDS011;5025;48.890;9.278;2023-03-20T17:03:34;2.83;;;2.53;;
9968;SDS011;5025;48.890;9.278;2023-03-20T17:06:26;2.53;;;2.30;;
9968;SDS011;5025;48.890;9.278;2023-03-20T17:08:54;3.30;;;2.20;;
9968;SDS011;5025;48.890;9.278;2023-03-20T17:11:28;2.43;;;2.30;;
9968;SDS011;5025;48.890;9.278;2023-03-20T17:13:57;2.60;;;2.40;;
9968;SDS011;5025;48.890;9.278;2023-03-20T17:16:22;2.27;;;2.07;;
9968;SDS011;5025;48.890;9.278;2023-03-20T17:18:58;2.57;;;2.00;;
9968;SDS011;5025;48.890;9.278;2023-03-20T17:21:45;2.30;;;2.20;;
9968;SDS011;5025;48.890;9.278;2023-03-20T17:24:12;2.67;;;2.53;;
9968;SDS011;5025;48.890;9.278;2023-03-20T17:26:41;2.33;;;2.13;;
9968;SDS011;5025;48.890;9.278;2023-03-20T17:29:10;2.30;;;2.10;;
9968;SDS011;5025;48.890;9.278;2023-03-20T17:31:36;2.20;;;2.10;;
9968;SDS011;5025;48.890;9.278;2023-03-20T17:34:01;2.73;;;2.53;;
9968;SDS011;5025;48.890;9.278;2023-03-20T17:36:28;2.30;;;2.20;;